createdAt,value
2022-09-23T00:01:08.100Z,21.10
2022-09-23T00:03:37.174Z,21.10
2022-09-23T00:06:07.089Z,21.07
2022-09-23T00:08:33.799Z,21.04
2022-09-23T00:11:12.599Z,21.07
2022-09-23T00:13:41.692Z,21.06
2022-09-23T00:16:10.561Z,21.05
2022-09-23T00:18:37.132Z,21.03
2022-09-23T00:21:08.417Z,21.01
2022-09-23T00:23:34.897Z,21.01
2022-09-23T00:26:03.703Z,20.97
2022-09-23T00:28:30.921Z,20.97
2022-09-23T00:31:01.452Z,20.90
2022-09-23T00:33:27.969Z,20.90
2022-09-23T00:36:01.918Z,20.91
2022-09-23T00:38:29.374Z,20.88
2022-09-23T00:40:56.315Z,20.87
2022-09-23T00:43:47.470Z,20.83
2022-09-23T00:46:31.002Z,20.81
2022-09-23T00:49:03.762Z,20.78
2022-09-23T00:51:34.511Z,20.80
2022-09-23T00:54:01.597Z,20.75
2022-09-23T00:56:28.301Z,20.75
2022-09-23T00:58:55.087Z,20.74
2022-09-23T01:01:21.661Z,20.74
2022-09-23T01:03:49.084Z,20.72
2022-09-23T01:06:15.722Z,20.70
2022-09-23T01:08:44.505Z,20.69
2022-09-23T01:11:29.441Z,20.68
2022-09-23T01:14:05.207Z,20.66
2022-09-23T01:16:44.220Z,20.64
2022-09-23T01:19:18.717Z,20.62
2022-09-23T01:21:54.828Z,20.61
2022-09-23T01:24:53.673Z,20.60
2022-09-23T01:27:42.165Z,20.58
2022-09-23T01:30:44.797Z,20.57
2022-09-23T01:33:39.714Z,20.57
2022-09-23T01:36:21.397Z,20.53
2022-09-23T01:38:59.131Z,20.52
2022-09-23T01:41:52.645Z,20.51
2022-09-23T01:44:27.538Z,20.51
2022-09-23T01:47:06.883Z,20.50
2022-09-23T01:49:57.986Z,20.49
2022-09-23T01:52:32.817Z,20.46
2022-09-23T01:55:10.602Z,20.47
2022-09-23T01:57:41.314Z,20.45
2022-09-23T02:00:16.117Z,20.44
2022-09-23T02:02:49.247Z,20.43
2022-09-23T02:05:30.713Z,20.43
2022-09-23T02:08:01.965Z,20.42
2022-09-23T02:10:28.397Z,20.40
2022-09-23T02:12:59.942Z,20.40
2022-09-23T02:15:34.926Z,20.39
2022-09-23T02:18:21.908Z,20.37
2022-09-23T02:20:51.019Z,20.34
2022-09-23T02:23:21.410Z,20.34
2022-09-23T02:26:16.193Z,20.35
2022-09-23T02:29:07.968Z,20.31
2022-09-23T02:31:45.458Z,20.29
2022-09-23T02:34:33.798Z,20.28
2022-09-23T02:37:17.038Z,20.26
2022-09-23T02:39:55.814Z,20.25
2022-09-23T02:42:28.479Z,20.25
2022-09-23T02:44:55.162Z,20.24
2022-09-23T02:47:25.131Z,20.24
2022-09-23T02:49:53.757Z,20.24
2022-09-23T02:52:20.307Z,20.21
2022-09-23T02:54:46.835Z,20.20
2022-09-23T02:57:14.441Z,20.20
2022-09-23T02:59:41.597Z,20.19
2022-09-23T03:02:08.040Z,20.18
2022-09-23T03:04:38.363Z,20.17
2022-09-23T03:07:19.419Z,20.17
2022-09-23T03:10:10.308Z,20.15
2022-09-23T03:12:52.900Z,20.12
2022-09-23T03:15:40.616Z,20.11
2022-09-23T03:18:20.579Z,20.12
2022-09-23T03:20:54.605Z,20.09
2022-09-23T03:23:25.151Z,20.09
2022-09-23T03:25:54.088Z,20.08
2022-09-23T03:28:22.017Z,20.09
2022-09-23T03:30:50.993Z,20.10
2022-09-23T03:33:18.734Z,20.07
2022-09-23T03:36:09.430Z,20.05
2022-09-23T03:38:37.919Z,20.04
2022-09-23T03:41:04.414Z,20.05
2022-09-23T03:43:31.446Z,20.03
2022-09-23T03:45:59.371Z,20.01
2022-09-23T03:48:25.938Z,19.99
2022-09-23T03:50:52.614Z,19.99
2022-09-23T03:53:21.083Z,20.00
2022-09-23T03:55:48.213Z,19.99
2022-09-23T03:58:14.741Z,19.99
2022-09-23T04:00:42.286Z,19.99
2022-09-23T04:03:11.708Z,19.99
2022-09-23T04:05:38.825Z,19.97
2022-09-23T04:08:05.497Z,19.96
2022-09-23T04:10:32.070Z,19.96
2022-09-23T04:12:58.654Z,19.95
2022-09-23T04:15:25.173Z,19.94
2022-09-23T04:17:51.722Z,19.92
2022-09-23T04:20:19.206Z,19.93
2022-09-23T04:22:45.833Z,19.90
2022-09-23T04:25:12.668Z,19.89
2022-09-23T04:27:39.238Z,19.88
2022-09-23T04:30:06.917Z,19.87
2022-09-23T04:32:33.476Z,19.87
2022-09-23T04:35:00.117Z,19.88
2022-09-23T04:37:26.722Z,19.87
2022-09-23T04:39:53.714Z,19.86
2022-09-23T04:42:20.258Z,19.84
2022-09-23T04:44:46.713Z,19.85
2022-09-23T04:47:13.481Z,19.83
2022-09-23T04:49:40.722Z,19.82
2022-09-23T04:52:07.329Z,19.78
2022-09-23T04:54:33.842Z,19.79
2022-09-23T04:57:00.732Z,19.78
2022-09-23T04:59:27.298Z,19.79
2022-09-23T05:01:55.256Z,19.77
2022-09-23T05:04:21.816Z,19.77
2022-09-23T05:06:49.153Z,19.75
2022-09-23T05:09:17.376Z,19.73
2022-09-23T05:11:45.057Z,19.75
2022-09-23T05:14:11.656Z,19.73
2022-09-23T05:16:38.226Z,19.74
2022-09-23T05:19:05.451Z,19.76
2022-09-23T05:21:32.155Z,19.75
2022-09-23T05:24:00.494Z,19.77
2022-09-23T05:26:29.007Z,19.75
2022-09-23T05:28:55.632Z,19.75
2022-09-23T05:31:24.859Z,19.75
2022-09-23T05:34:02.668Z,19.74
2022-09-23T05:36:35.606Z,19.72
2022-09-23T05:39:04.861Z,19.74
2022-09-23T05:44:12.334Z,19.73
2022-09-23T05:46:39.123Z,19.73
2022-09-23T05:49:06.053Z,19.72
2022-09-23T05:51:33.692Z,19.73
2022-09-23T05:54:02.830Z,19.75
2022-09-23T05:56:30.253Z,19.72
2022-09-23T05:58:58.307Z,19.74
2022-09-23T06:01:27.606Z,19.72
2022-09-23T06:03:56.440Z,19.71
2022-09-23T06:06:31.117Z,19.69
2022-09-23T06:08:59.295Z,19.70
2022-09-23T06:11:26.135Z,19.71
2022-09-23T06:13:59.275Z,19.71
2022-09-23T06:16:25.845Z,19.68
2022-09-23T06:18:52.333Z,19.74
2022-09-23T06:21:19.159Z,19.67
2022-09-23T06:23:46.395Z,19.74
2022-09-23T06:26:16.595Z,20.02
2022-09-23T06:28:44.371Z,20.39
2022-09-23T06:31:14.011Z,20.65
2022-09-23T06:33:42.689Z,20.40
2022-09-23T06:36:09.516Z,20.18
2022-09-23T06:38:39.396Z,20.03
2022-09-23T06:41:05.924Z,19.95
2022-09-23T06:43:32.686Z,19.96
2022-09-23T06:46:00.809Z,19.94
2022-09-23T06:48:28.486Z,19.93
2022-09-23T06:50:58.938Z,19.94
2022-09-23T06:53:25.519Z,19.97
2022-09-23T06:56:03.170Z,20.04
2022-09-23T06:58:31.564Z,20.12
2022-09-23T07:01:07.048Z,20.10
2022-09-23T07:03:34.557Z,20.09
2022-09-23T07:06:01.367Z,20.08
2022-09-23T07:08:29.203Z,20.13
2022-09-23T07:10:57.805Z,20.12
2022-09-23T07:13:24.707Z,20.10
2022-09-23T07:15:51.996Z,20.16
2022-09-23T07:18:19.453Z,20.22
2022-09-23T07:20:48.860Z,20.23
2022-09-23T07:23:16.044Z,20.34
2022-09-23T07:25:42.825Z,20.36
2022-09-23T07:28:09.349Z,20.39
2022-09-23T07:30:47.892Z,20.40
2022-09-23T07:33:31.073Z,20.43
2022-09-23T07:35:59.055Z,20.49
2022-09-23T07:38:31.337Z,20.52
2022-09-23T07:41:03.058Z,20.54
2022-09-23T07:43:31.794Z,20.56
2022-09-23T07:45:59.826Z,20.61
2022-09-23T07:48:29.616Z,20.58
2022-09-23T07:51:00.092Z,20.59
2022-09-23T07:53:27.071Z,20.65
2022-09-23T07:55:55.355Z,20.57
2022-09-23T07:58:22.212Z,20.49
2022-09-23T08:00:54.040Z,20.37
2022-09-23T08:03:21.211Z,20.57
2022-09-23T08:05:48.089Z,20.60
2022-09-23T08:08:14.570Z,20.48
2022-09-23T08:10:41.078Z,20.52
2022-09-23T08:13:07.623Z,20.36
2022-09-23T08:15:34.476Z,20.32
2022-09-23T08:18:01.455Z,20.33
2022-09-23T08:20:47.971Z,20.27
2022-09-23T08:23:16.673Z,20.71
2022-09-23T08:25:47.032Z,20.61
2022-09-23T08:28:18.689Z,20.67
2022-09-23T08:30:49.098Z,20.60
2022-09-23T08:33:19.641Z,20.64
2022-09-23T08:35:49.302Z,20.71
2022-09-23T08:38:16.042Z,21.27
2022-09-23T08:40:45.064Z,21.41
2022-09-23T08:43:25.948Z,21.27
2022-09-23T08:45:53.611Z,21.24
2022-09-23T08:48:31.131Z,21.57
2022-09-23T08:51:12.484Z,21.44
2022-09-23T08:53:39.393Z,21.69
2022-09-23T08:56:14.202Z,21.62
2022-09-23T08:59:15.074Z,21.52
2022-09-23T09:01:46.582Z,21.71
2022-09-23T09:04:19.101Z,21.69
2022-09-23T09:06:54.049Z,21.88
2022-09-23T09:09:30.674Z,21.87
2022-09-23T09:12:03.903Z,22.15
2022-09-23T09:14:36.990Z,22.08
2022-09-23T09:17:24.593Z,22.31
2022-09-23T09:20:01.969Z,22.42
2022-09-23T09:22:42.043Z,22.65
2022-09-23T09:25:19.547Z,22.62
2022-09-23T09:27:47.514Z,22.47
2022-09-23T09:30:14.560Z,22.09
2022-09-23T09:32:48.660Z,22.24
2022-09-23T09:35:37.689Z,22.22
2022-09-23T09:38:05.741Z,21.52
2022-09-23T09:40:34.568Z,21.99
2022-09-23T09:43:05.188Z,22.40
2022-09-23T09:46:02.475Z,22.61
2022-09-23T09:48:38.565Z,22.81
2022-09-23T09:51:18.710Z,22.92
2022-09-23T09:53:45.181Z,22.97
2022-09-23T09:56:15.123Z,23.12
2022-09-23T09:58:47.536Z,23.14
2022-09-23T10:01:25.767Z,22.43
2022-09-23T10:03:56.869Z,22.16
2022-09-23T10:06:30.262Z,22.24
2022-09-23T10:09:13.868Z,22.24
2022-09-23T10:11:41.653Z,22.32
2022-09-23T10:14:17.619Z,22.68
2022-09-23T10:16:46.143Z,22.80
2022-09-23T10:19:27.940Z,22.65
2022-09-23T10:21:56.911Z,22.55
2022-09-23T10:24:36.277Z,22.62
2022-09-23T10:27:11.726Z,22.54
2022-09-23T10:29:47.976Z,22.56
2022-09-23T10:32:25.577Z,22.55
2022-09-23T10:35:09.316Z,22.62
2022-09-23T10:37:48.238Z,22.68
2022-09-23T10:40:39.272Z,22.73
2022-09-23T10:43:49.424Z,22.61
2022-09-23T10:46:38.596Z,22.65
2022-09-23T10:49:37.114Z,22.60
2022-09-23T10:52:18.209Z,22.69
2022-09-23T10:54:56.869Z,22.78
2022-09-23T10:57:45.114Z,22.86
2022-09-23T11:00:38.628Z,22.91
2022-09-23T11:03:24.350Z,23.02
2022-09-23T11:05:56.510Z,22.96
2022-09-23T11:08:32.082Z,22.77
2022-09-23T11:11:19.708Z,22.86
2022-09-23T11:13:54.844Z,23.09
2022-09-23T11:16:38.774Z,23.38
2022-09-23T11:19:24.415Z,23.34
2022-09-23T11:21:51.741Z,23.44
2022-09-23T11:24:58.525Z,23.46
2022-09-23T11:27:47.110Z,23.43
2022-09-23T11:30:19.931Z,23.52
2022-09-23T11:33:04.846Z,23.57
2022-09-23T11:35:35.695Z,23.60
2022-09-23T11:38:12.381Z,23.65
2022-09-23T11:40:43.906Z,23.66
2022-09-23T11:43:21.566Z,23.68
2022-09-23T11:46:00.853Z,23.80
2022-09-23T11:48:34.064Z,23.93
2022-09-23T11:51:03.479Z,24.08
2022-09-23T11:53:40.762Z,24.15
2022-09-23T11:56:32.004Z,24.20
2022-09-23T11:59:39.717Z,24.28
2022-09-23T12:02:31.378Z,24.33
2022-09-23T12:05:09.642Z,24.34
2022-09-23T12:07:56.664Z,24.22
2022-09-23T12:10:51.625Z,24.31
2022-09-23T12:13:27.174Z,24.14
2022-09-23T12:16:32.015Z,24.18
2022-09-23T12:19:18.927Z,24.21
2022-09-23T12:22:00.888Z,24.41
2022-09-23T12:24:58.531Z,24.51
2022-09-23T12:27:38.918Z,24.56
2022-09-23T12:30:13.938Z,24.56
2022-09-23T12:32:42.224Z,24.59
2022-09-23T12:35:23.815Z,24.57
2022-09-23T12:37:51.865Z,24.42
2022-09-23T12:40:31.022Z,24.57
2022-09-23T12:42:59.238Z,24.49
2022-09-23T12:45:31.713Z,24.58
2022-09-23T12:47:59.214Z,24.67
2022-09-23T12:50:48.477Z,24.71
2022-09-23T12:53:47.168Z,24.76
2022-09-23T12:56:19.462Z,24.87
2022-09-23T12:58:45.871Z,24.92
2022-09-23T13:01:23.555Z,24.96
2022-09-23T13:04:13.777Z,25.06
2022-09-23T13:06:50.644Z,25.07
2022-09-23T13:09:24.781Z,25.18
2022-09-23T13:11:53.067Z,25.20
2022-09-23T13:14:26.701Z,25.25
2022-09-23T13:16:57.213Z,25.39
2022-09-23T13:19:26.872Z,25.56
2022-09-23T13:21:53.287Z,25.80
2022-09-23T13:24:44.123Z,25.96
2022-09-23T13:27:21.988Z,25.89
2022-09-23T13:30:00.445Z,25.99
2022-09-23T13:32:31.841Z,25.89
2022-09-23T13:35:00.375Z,25.86
2022-09-23T13:37:38.922Z,26.21
2022-09-23T13:40:19.774Z,26.26
2022-09-23T13:42:49.341Z,26.33
2022-09-23T13:45:18.650Z,26.37
2022-09-23T13:47:47.046Z,26.38
2022-09-23T13:50:18.168Z,26.47
2022-09-23T13:52:45.142Z,26.46
2022-09-23T13:55:32.619Z,26.44
2022-09-23T13:58:02.289Z,26.70
2022-09-23T14:00:35.132Z,26.77
2022-09-23T14:03:03.554Z,26.94
2022-09-23T14:05:34.817Z,27.22
2022-09-23T14:08:02.433Z,27.13
2022-09-23T14:10:28.931Z,27.37
2022-09-23T14:12:56.428Z,27.62
2022-09-23T14:15:23.016Z,27.83
2022-09-23T14:18:06.202Z,28.03
2022-09-23T14:20:34.176Z,28.04
2022-09-23T14:23:10.062Z,28.18
2022-09-23T14:25:36.862Z,28.28
2022-09-23T14:28:04.433Z,28.34
2022-09-23T14:30:31.166Z,28.49
2022-09-23T14:32:58.354Z,28.43
2022-09-23T14:35:28.077Z,28.25
2022-09-23T14:38:15.238Z,28.38
2022-09-23T14:41:14.845Z,28.67
2022-09-23T14:44:02.112Z,28.92
2022-09-23T14:46:32.803Z,29.12
2022-09-23T14:49:10.985Z,29.22
2022-09-23T14:51:46.929Z,29.25
2022-09-23T14:54:35.674Z,29.18
2022-09-23T14:57:24.080Z,29.29
2022-09-23T14:59:53.489Z,29.28
2022-09-23T15:02:39.697Z,29.24
2022-09-23T15:05:29.422Z,29.39
2022-09-23T15:07:57.998Z,29.57
2022-09-23T15:10:31.163Z,29.69
2022-09-23T15:13:15.173Z,29.59
2022-09-23T15:15:42.271Z,29.51
2022-09-23T15:18:29.231Z,29.38
2022-09-23T15:21:07.993Z,29.19
2022-09-23T15:23:40.855Z,28.85
2022-09-23T15:26:10.289Z,28.69
2022-09-23T15:28:36.836Z,28.60
2022-09-23T15:31:05.658Z,28.37
2022-09-23T15:33:32.570Z,28.06
2022-09-23T15:35:59.084Z,27.90
2022-09-23T15:38:27.242Z,27.93
2022-09-23T15:40:54.288Z,28.08
2022-09-23T15:43:24.068Z,27.94
2022-09-23T15:45:55.782Z,27.92
2022-09-23T15:48:28.098Z,27.86
2022-09-23T15:50:55.015Z,27.83
2022-09-23T15:53:23.875Z,27.79
2022-09-23T15:55:51.067Z,27.70
2022-09-23T15:58:21.765Z,27.93
2022-09-23T16:00:55.728Z,27.92
2022-09-23T16:03:28.862Z,27.68
2022-09-23T16:06:00.563Z,27.40
2022-09-23T16:08:27.913Z,27.24
2022-09-23T16:10:55.067Z,27.03
2022-09-23T16:13:21.864Z,26.89
2022-09-23T16:15:48.359Z,26.86
2022-09-23T16:18:14.944Z,26.87
2022-09-23T16:20:44.538Z,26.87
2022-09-23T16:23:35.129Z,26.82
2022-09-23T16:26:18.489Z,26.71
2022-09-23T16:28:46.566Z,26.55
2022-09-23T16:31:16.061Z,26.38
2022-09-23T16:33:43.748Z,26.28
2022-09-23T16:36:17.656Z,26.14
2022-09-23T16:38:44.359Z,26.04
2022-09-23T16:41:11.607Z,25.93
2022-09-23T16:43:39.742Z,25.86
2022-09-23T16:46:12.088Z,25.81
2022-09-23T16:48:40.435Z,25.72
2022-09-23T16:51:08.195Z,25.63
2022-09-23T16:53:35.128Z,25.48
2022-09-23T16:56:09.306Z,25.41
2022-09-23T16:58:36.723Z,25.31
2022-09-23T17:01:22.591Z,25.25
2022-09-23T17:03:49.372Z,25.19
2022-09-23T17:06:17.987Z,25.12
2022-09-23T17:08:48.250Z,25.03
2022-09-23T17:11:16.387Z,24.96
2022-09-23T17:13:44.271Z,24.84
2022-09-23T17:16:11.890Z,24.78
2022-09-23T17:18:41.119Z,24.72
2022-09-23T17:21:08.321Z,24.65
2022-09-23T17:23:35.862Z,24.58
2022-09-23T17:26:03.028Z,24.52
2022-09-23T17:28:29.511Z,24.47
2022-09-23T17:31:00.368Z,24.47
2022-09-23T17:33:28.064Z,24.42
2022-09-23T17:35:54.975Z,24.39
2022-09-23T17:38:28.708Z,24.36
2022-09-23T17:40:57.494Z,24.31
2022-09-23T17:43:25.798Z,24.27
2022-09-23T17:45:56.036Z,24.22
2022-09-23T17:48:25.262Z,24.20
2022-09-23T17:50:59.401Z,24.17
2022-09-23T17:53:26.218Z,24.17
2022-09-23T17:55:57.726Z,24.13
2022-09-23T17:58:25.970Z,24.08
2022-09-23T18:00:52.540Z,24.09
2022-09-23T18:03:19.372Z,24.02
2022-09-23T18:05:46.139Z,24.03
2022-09-23T18:08:13.067Z,23.96
2022-09-23T18:10:39.766Z,23.95
2022-09-23T18:13:11.005Z,23.96
2022-09-23T18:15:38.904Z,23.92
2022-09-23T18:18:06.032Z,23.89
2022-09-23T18:20:33.122Z,23.88
2022-09-23T18:22:59.671Z,23.83
2022-09-23T18:25:39.290Z,23.78
2022-09-23T18:28:06.569Z,23.74
2022-09-23T18:30:33.588Z,23.74
2022-09-23T18:33:00.282Z,23.73
2022-09-23T18:35:26.810Z,23.75
2022-09-23T18:37:53.381Z,23.69
2022-09-23T18:40:20.046Z,23.70
2022-09-23T18:42:46.963Z,23.65
2022-09-23T18:45:13.562Z,23.64
2022-09-23T18:47:58.732Z,23.56
2022-09-23T18:50:42.974Z,23.62
2022-09-23T18:53:10.308Z,23.56
2022-09-23T18:55:41.034Z,23.53
2022-09-23T18:59:10.796Z,23.51
2022-09-23T19:01:38.041Z,23.41
2022-09-23T19:04:04.938Z,23.36
2022-09-23T19:06:35.787Z,23.37
2022-09-23T19:09:02.389Z,23.34
2022-09-23T19:11:29.277Z,23.22
2022-09-23T19:13:57.626Z,23.27
2022-09-23T19:16:33.831Z,23.15
2022-09-23T19:19:00.969Z,23.22
2022-09-23T19:21:28.414Z,23.18
2022-09-23T19:23:56.875Z,23.16
2022-09-23T19:26:26.807Z,23.18
2022-09-23T19:28:55.350Z,23.17
2022-09-23T19:31:24.615Z,23.14
2022-09-23T19:34:01.518Z,23.13
2022-09-23T19:36:37.576Z,23.12
2022-09-23T19:39:09.797Z,23.08
2022-09-23T19:41:36.503Z,23.03
2022-09-23T19:44:03.856Z,23.01
2022-09-23T19:46:31.192Z,23.02
2022-09-23T19:48:58.472Z,22.99
2022-09-23T19:51:25.686Z,22.98
2022-09-23T19:53:52.923Z,22.94
2022-09-23T19:56:19.839Z,22.91
2022-09-23T19:58:52.417Z,22.91
2022-09-23T20:01:19.335Z,22.89
2022-09-23T20:03:47.000Z,22.86
2022-09-23T20:06:14.775Z,22.83
2022-09-23T20:08:41.807Z,22.82
2022-09-23T20:11:14.739Z,22.77
2022-09-23T20:13:45.784Z,22.77
2022-09-23T20:16:14.118Z,22.75
2022-09-23T20:18:41.817Z,22.66
2022-09-23T20:21:11.100Z,22.58
2022-09-23T20:23:37.790Z,22.56
2022-09-23T20:26:24.158Z,22.58
2022-09-23T20:28:54.898Z,22.53
2022-09-23T20:31:22.996Z,22.45
2022-09-23T20:33:51.568Z,22.41
2022-09-23T20:36:18.566Z,22.41
2022-09-23T20:38:47.903Z,22.40
2022-09-23T20:41:16.461Z,22.42
2022-09-23T20:43:43.899Z,22.45
2022-09-23T20:46:10.668Z,22.43
2022-09-23T20:48:37.298Z,22.33
2022-09-23T20:51:05.351Z,22.33
2022-09-23T20:53:34.383Z,22.35
2022-09-23T20:56:01.133Z,22.35
2022-09-23T20:58:29.421Z,22.34
2022-09-23T21:01:05.417Z,22.30
2022-09-23T21:03:33.335Z,22.28
2022-09-23T21:06:03.908Z,22.23
2022-09-23T21:08:31.648Z,22.24
2022-09-23T21:11:00.008Z,22.22
2022-09-23T21:13:26.711Z,22.14
2022-09-23T21:15:53.501Z,22.17
2022-09-23T21:18:22.605Z,22.17
2022-09-23T21:20:56.667Z,22.12
2022-09-23T21:23:31.280Z,22.12
2022-09-23T21:26:06.629Z,22.06
2022-09-23T21:28:35.221Z,22.09
2022-09-23T21:31:03.938Z,22.06
2022-09-23T21:33:31.298Z,22.05
2022-09-23T21:36:03.732Z,22.02
2022-09-23T21:38:37.426Z,22.06
2022-09-23T21:41:07.171Z,22.01
2022-09-23T21:43:35.734Z,22.02
2022-09-23T21:46:07.841Z,21.99
2022-09-23T21:48:41.121Z,22.03
2022-09-23T21:51:13.185Z,22.01
2022-09-23T21:53:41.003Z,21.95
2022-09-23T21:56:08.573Z,21.97
2022-09-23T21:58:37.516Z,22.00
2022-09-23T22:01:12.351Z,21.94
2022-09-23T22:03:39.602Z,21.93
2022-09-23T22:06:11.387Z,21.93
2022-09-23T22:08:40.616Z,21.91
2022-09-23T22:11:32.958Z,21.87
2022-09-23T22:14:02.035Z,21.91
2022-09-23T22:16:29.405Z,21.91
2022-09-23T22:18:58.393Z,21.87
2022-09-23T22:21:26.674Z,21.84
2022-09-23T22:23:54.330Z,21.85
2022-09-23T22:26:20.955Z,21.79
2022-09-23T22:29:06.108Z,21.78
2022-09-23T22:31:51.375Z,21.75
2022-09-23T22:34:47.533Z,21.76
2022-09-23T22:37:06.859Z,21.74
2022-09-23T22:39:33.495Z,21.71
2022-09-23T22:42:00.263Z,21.69
2022-09-23T22:44:26.934Z,21.67
2022-09-23T22:46:53.896Z,21.69
2022-09-23T22:49:21.118Z,21.67
2022-09-23T22:51:48.015Z,21.63
2022-09-23T22:54:34.252Z,21.66
2022-09-23T22:57:04.610Z,21.66
2022-09-23T22:59:31.551Z,21.67
2022-09-23T23:02:00.476Z,21.65
2022-09-23T23:04:30.909Z,21.63
2022-09-23T23:06:58.871Z,21.63
2022-09-23T23:09:26.178Z,21.58
2022-09-23T23:11:53.132Z,21.59
2022-09-23T23:14:20.201Z,21.58
2022-09-23T23:16:47.038Z,21.58
2022-09-23T23:19:17.015Z,21.58
2022-09-23T23:21:44.933Z,21.56
2022-09-23T23:24:19.788Z,21.55
2022-09-23T23:26:46.654Z,21.58
2022-09-23T23:29:14.523Z,21.53
2022-09-23T23:31:41.460Z,21.53
2022-09-23T23:34:11.875Z,21.52
2022-09-23T23:36:38.593Z,21.50
2022-09-23T23:39:05.395Z,21.52
2022-09-23T23:41:31.934Z,21.50
2022-09-23T23:44:00.058Z,21.46
2022-09-23T23:46:28.673Z,21.51
2022-09-23T23:48:56.507Z,21.49
2022-09-23T23:51:27.798Z,21.44
2022-09-23T23:53:54.959Z,21.42
2022-09-23T23:56:23.706Z,21.42
2022-09-23T23:58:54.858Z,21.40
